EGPHEGPF

Guest
Details From EGPH - Edinburgh
To EGPF - Glasgow
Flight Number -
Tags generated
Created
Modified
Stats Distance 37 nm / 69 km
Max Altitude 0 ft / 0 m
Waypoints 3
Social Downloads 3
Likes 0
Share VATSIM

Download

Looking for another format? Having issues loading an existing format? Contact us
Advertisement - Login to hide

Notes

Basic altitude profile: - Ascent Rate: 2500ft/min - Ascent Speed: 250kts - Cruise Altitude: 35000ft - Cruise Speed: 420kts - Descent Rate: 1500ft/min - Descent Speed: 250kts

Route

EGPH GOW EGPF

ID Type Via Altitude Latitude Longitude Leg Dist Tot Dist Heading (true) Name
O EGPH APT - 0 ft / 0 m 55.94869˚ -3.35972˚ - 0 nm - Edinburgh
GOW VOR - 0 ft / 0 m 55.87050˚ -4.44573˚ 36 nm 36 nm 263° / 262° GLASGOW VOR-DME
O EGPF APT - 0 ft / 0 m 55.87173˚ -4.43365˚ 0 nm 37 nm 80° / 80° Glasgow

Altitude Profile

Advertisement - Login to hide

EGPH

Details ICAO EGPH (EDI)
Name Edinburgh
Region United Kingdom
Timezone Europe/London (UTC+0.0)
Stats Elevation 135 ft / 41 m (AMSL)
Location 55.948685° -3.359718°
Runways 2
Magnetic Variation 2.301° W

METAR

EGPH 110220Z 30004KT CAVOK M05/M07 Q0986

Decode

TAF

TAF EGPH 102255Z 1100/1124 26005KT 9999 FEW045 PROB30 TEMPO 1116/1120 35012KT 3000 -SHSN BKN005

Decode

Departure Runways

ID Width Length Bearing (true) Bearing (mag) Surface Threshold Offset Overrun Length
06 144 ft / 44 m 8,366 ft / 2,550 m 58.80° 61.10° Asphalt 705 ft / 215 m 200 ft / 61 m
12 151 ft / 46 m 5,878 ft / 1,792 m 118.67° 120.97° Asphalt 0 ft / 0 m 0 ft / 0 m
24 144 ft / 44 m 8,366 ft / 2,550 m 238.83° 241.13° Asphalt 679 ft / 207 m 207 ft / 63 m
30 151 ft / 46 m 5,878 ft / 1,792 m 298.69° 300.99° Asphalt 194 ft / 59 m 253 ft / 77 m

EGPF

Details ICAO EGPF (GLA)
Name Glasgow
Region United Kingdom
Timezone Europe/London (UTC+0.0)
Stats Elevation 26 ft / 8 m (AMSL)
Location 55.871728° -4.433648°
Runways 1
Magnetic Variation 2.733° W

METAR

EGPF 110220Z AUTO VRB02KT 5000 HZ NCD M08/M09 Q0986

Decode

TAF

TAF TAF EGPF 102256Z 1100/1124 VRB03KT 3000 BR SCT002 TEMPO 1100/1110 0250 FZFG OVC001 PROB30 TEMPO 1100/1109 9999 NSW BECMG 1109/1112 9999 NSW

Decode

Destination Runways

ID Width Length Bearing (true) Bearing (mag) Surface Threshold Offset Overrun Length
05 151 ft / 46 m 8,721 ft / 2,658 m 46.34° 49.07° Asphalt 0 ft / 0 m 499 ft / 152 m
23 151 ft / 46 m 8,721 ft / 2,658 m 226.37° 229.10° Asphalt 1,004 ft / 306 m 0 ft / 0 m

Approach Navaids

Runway Type Ident Frequency Range Bearing (true) Bearing (mag) Slope Elevation
05 Localiser IUU 110.10 MHz 18 nm / 33 km 46.37° 49.10° - 26 ft / 8 m (AMSL)
05 Glidescope IUU 110.10 MHz 10 nm / 19 km 46.36° 49.09° 3.00° 52 ft / 16 m (AMSL)
05 DME IUU 110.10 MHz 18 nm / 33 km - - - 25 ft / 8 m (AMSL)
23 Localiser IOO 110.10 MHz 18 nm / 33 km 226.33° 229.07° - 26 ft / 8 m (AMSL)
23 Glidescope IOO 110.10 MHz 10 nm / 19 km 226.36° 229.09° 3.00° 50 ft / 15 m (AMSL)
23 DME IOO 110.10 MHz 18 nm / 33 km - - - 25 ft / 8 m (AMSL)

Popular Alternatives